Time;durP1;ratioP1;P1;durP2;ratioP2;P2;SDS_P1;SDS_P2;PMS_P1;PMS_P2;Temp;Humidity;BMP_temperature;BMP_pressure;BME280_temperature;BME280_humidity;BME280_pressure;Samples;Min_cycle;Max_cycle;Signal;HPM_P1;HPM_P2
2022/03/16 00:01:29;;;;;;;20.25;4.68;;;;;;;;;;5004397;28;20103;-68
2022/03/16 00:03:55;;;;;;;14.15;4.95;;;;;;;;;;5004724;28;20025;-69
2022/03/16 00:06:20;;;;;;;21.75;5.07;;;;;;;;;;5004862;28;20181;-69
2022/03/16 00:08:46;;;;;;;14.05;4.43;;;;;;;;;;5004865;28;20051;-69
2022/03/16 00:11:11;;;;;;;16.20;4.63;;;;;;;;;;5004946;28;20039;-69
2022/03/16 00:13:37;;;;;;;13.07;4.65;;;;;;;;;;5003363;28;20494;-69
2022/03/16 00:16:02;;;;;;;20.00;5.40;;;;;;;;;;5004584;28;20116;-69
2022/03/16 00:18:27;;;;;;;12.40;4.88;;;;;;;;;;5004692;28;20037;-69
2022/03/16 00:20:53;;;;;;;10.82;5.70;;;;;;;;;;5004730;28;20105;-68
2022/03/16 00:23:18;;;;;;;21.17;5.55;;;;;;;;;;5003719;28;20040;-69
2022/03/16 00:25:44;;;;;;;21.20;6.47;;;;;;;;;;5004624;28;20457;-69
2022/03/16 00:28:10;;;;;;;19.30;5.43;;;;;;;;;;5004472;28;20128;-69
2022/03/16 00:30:36;;;;;;;13.18;5.82;;;;;;;;;;4986844;28;20029;-69
2022/03/16 00:33:02;;;;;;;21.67;5.78;;;;;;;;;;5004275;28;20135;-69
2022/03/16 00:35:31;;;;;;;16.85;6.50;;;;;;;;;;5003401;28;20141;-69
2022/03/16 00:37:56;;;;;;;12.73;6.82;;;;;;;;;;4986866;28;20085;-71
2022/03/16 00:40:22;;;;;;;14.18;5.97;;;;;;;;;;5004163;28;20541;-69
2022/03/16 00:42:47;;;;;;;15.80;7.78;;;;;;;;;;5004430;28;20497;-69
2022/03/16 00:45:13;;;;;;;15.82;7.90;;;;;;;;;;4985522;28;20059;-69
2022/03/16 00:47:38;;;;;;;22.60;8.25;;;;;;;;;;5004014;28;20382;-69
2022/03/16 00:50:04;;;;;;;17.60;8.43;;;;;;;;;;5003866;28;20034;-69
2022/03/16 00:52:30;;;;;;;15.85;8.65;;;;;;;;;;4986327;28;20049;-69
2022/03/16 00:54:57;;;;;;;26.75;9.70;;;;;;;;;;4986346;28;20037;-69
2022/03/16 00:57:23;;;;;;;17.80;10.52;;;;;;;;;;5002981;28;20057;-69
2022/03/16 00:59:49;;;;;;;16.38;9.65;;;;;;;;;;5003890;28;20503;-69
2022/03/16 01:02:15;;;;;;;19.05;10.60;;;;;;;;;;5003740;28;20041;-69
2022/03/16 01:04:41;;;;;;;19.17;10.00;;;;;;;;;;4985685;28;20033;-69
2022/03/16 01:07:07;;;;;;;23.10;11.25;;;;;;;;;;5002645;28;20042;-69
2022/03/16 01:09:32;;;;;;;20.65;11.15;;;;;;;;;;4985891;28;20030;-69
2022/03/16 01:11:58;;;;;;;18.50;11.70;;;;;;;;;;4985952;28;20606;-69
2022/03/16 01:14:23;;;;;;;21.67;11.73;;;;;;;;;;4977332;28;20037;-69
2022/03/16 01:16:49;;;;;;;22.15;11.32;;;;;;;;;;5003761;28;20042;-69
2022/03/16 01:19:14;;;;;;;19.75;11.77;;;;;;;;;;5002242;28;20045;-69
2022/03/16 01:21:44;;;;;;;23.55;12.23;;;;;;;;;;5003568;28;20029;-69
2022/03/16 01:24:10;;;;;;;19.90;12.48;;;;;;;;;;4969506;28;20029;-69
2022/03/16 01:26:36;;;;;;;22.33;12.40;;;;;;;;;;5003458;28;20056;-69
2022/03/16 01:29:03;;;;;;;22.08;11.02;;;;;;;;;;5003469;28;20876;-69
2022/03/16 01:31:28;;;;;;;23.90;13.77;;;;;;;;;;4970605;28;20038;-69
2022/03/16 01:33:55;;;;;;;22.50;12.77;;;;;;;;;;5002894;28;20511;-69
2022/03/16 01:36:21;;;;;;;22.80;13.77;;;;;;;;;;4985444;28;20041;-69
2022/03/16 01:38:47;;;;;;;24.92;14.68;;;;;;;;;;5003228;28;20117;-69
2022/03/16 01:41:13;;;;;;;24.60;13.73;;;;;;;;;;5002290;28;20040;-69
2022/03/16 01:43:39;;;;;;;20.55;13.65;;;;;;;;;;5002814;28;20022;-69
2022/03/16 01:46:04;;;;;;;21.80;14.32;;;;;;;;;;5002888;28;20047;-69
2022/03/16 01:48:30;;;;;;;23.00;13.85;;;;;;;;;;5003099;28;20112;-69
2022/03/16 01:50:56;;;;;;;23.55;14.27;;;;;;;;;;5003033;28;20116;-69
2022/03/16 01:53:21;;;;;;;24.38;14.23;;;;;;;;;;5001993;28;20136;-69
2022/03/16 01:55:47;;;;;;;21.10;13.90;;;;;;;;;;4984749;28;20506;-69
2022/03/16 01:58:13;;;;;;;29.35;15.23;;;;;;;;;;4985326;28;20483;-69
2022/03/16 02:00:40;;;;;;;25.63;15.10;;;;;;;;;;4983578;28;20037;-69
2022/03/16 02:03:07;;;;;;;20.75;12.65;;;;;;;;;;4984374;28;20040;-69
2022/03/16 02:05:33;;;;;;;28.67;14.65;;;;;;;;;;4984890;28;20045;-69
2022/03/16 02:07:59;;;;;;;26.92;16.20;;;;;;;;;;5002703;28;20053;-69
2022/03/16 02:10:24;;;;;;;21.42;14.75;;;;;;;;;;5002839;28;20494;-69
2022/03/16 02:12:52;;;;;;;28.23;14.57;;;;;;;;;;5002272;28;20046;-69
2022/03/16 02:15:19;;;;;;;26.27;16.33;;;;;;;;;;5001480;28;20081;-69
2022/03/16 02:17:45;;;;;;;23.60;15.75;;;;;;;;;;5002594;28;20025;-69
2022/03/16 02:20:11;;;;;;;23.00;15.93;;;;;;;;;;5001282;28;20041;-69
2022/03/16 02:22:51;;;;;;;27.58;16.58;;;;;;;;;;5002464;28;20082;-69
2022/03/16 02:25:16;;;;;;;29.23;17.25;;;;;;;;;;5001785;28;20533;-69
2022/03/16 02:27:42;;;;;;;27.35;17.83;;;;;;;;;;5002389;28;20061;-69
2022/03/16 02:30:08;;;;;;;25.30;16.73;;;;;;;;;;5002828;28;20037;-69
2022/03/16 02:32:34;;;;;;;33.30;18.15;;;;;;;;;;5002441;28;20038;-69
2022/03/16 02:35:00;;;;;;;31.25;17.33;;;;;;;;;;5002360;28;20041;-69
2022/03/16 02:37:29;;;;;;;27.83;17.23;;;;;;;;;;5001585;28;20041;-69
2022/03/16 02:39:55;;;;;;;28.67;16.10;;;;;;;;;;4997472;28;20038;-69
2022/03/16 02:42:24;;;;;;;31.13;17.67;;;;;;;;;;4976363;28;20050;-69
2022/03/16 02:44:50;;;;;;;27.58;17.17;;;;;;;;;;5002244;28;20041;-69
2022/03/16 02:47:15;;;;;;;28.77;17.70;;;;;;;;;;5000939;28;20042;-69
2022/03/16 02:49:41;;;;;;;26.83;17.98;;;;;;;;;;4984405;28;20085;-69
2022/03/16 02:52:08;;;;;;;29.00;16.98;;;;;;;;;;5001898;28;20037;-69
2022/03/16 02:54:33;;;;;;;24.83;16.83;;;;;;;;;;5001789;28;20045;-69
2022/03/16 02:56:59;;;;;;;27.65;16.98;;;;;;;;;;5001819;28;20092;-69
2022/03/16 02:59:24;;;;;;;31.20;18.40;;;;;;;;;;5000584;28;20100;-69
2022/03/16 03:01:50;;;;;;;30.17;18.08;;;;;;;;;;5001685;28;20041;-69
2022/03/16 03:04:15;;;;;;;34.70;17.90;;;;;;;;;;5001199;28;20037;-69
2022/03/16 03:06:40;;;;;;;32.13;18.13;;;;;;;;;;5002035;28;20993;-69
2022/03/16 03:09:06;;;;;;;29.77;17.55;;;;;;;;;;5000492;28;20310;-69
2022/03/16 03:11:31;;;;;;;30.45;18.45;;;;;;;;;;5001587;28;20045;-69
2022/03/16 03:13:57;;;;;;;26.80;15.10;;;;;;;;;;5001327;28;20103;-69
2022/03/16 03:16:22;;;;;;;33.30;18.02;;;;;;;;;;5001475;28;20533;-69
2022/03/16 03:18:47;;;;;;;36.42;19.48;;;;;;;;;;5001478;28;20042;-69
2022/03/16 03:21:13;;;;;;;38.20;19.30;;;;;;;;;;5000643;28;20038;-68
2022/03/16 03:23:38;;;;;;;32.60;18.38;;;;;;;;;;5001161;28;20100;-68
2022/03/16 03:26:04;;;;;;;33.30;19.58;;;;;;;;;;5001524;28;20050;-68
2022/03/16 03:28:29;;;;;;;36.17;19.30;;;;;;;;;;5001246;28;20070;-69
2022/03/16 03:30:55;;;;;;;37.10;18.85;;;;;;;;;;5000339;28;20081;-69
2022/03/16 03:33:20;;;;;;;35.60;19.58;;;;;;;;;;5000688;28;20132;-68
2022/03/16 03:35:45;;;;;;;37.60;19.75;;;;;;;;;;5001563;28;20095;-68
2022/03/16 03:38:13;;;;;;;35.35;19.20;;;;;;;;;;5000711;28;20033;-69
2022/03/16 03:40:38;;;;;;;32.38;18.52;;;;;;;;;;5001356;28;20037;-69
2022/03/16 03:43:04;;;;;;;28.60;17.05;;;;;;;;;;5000258;28;20029;-68
2022/03/16 03:45:31;;;;;;;29.48;17.67;;;;;;;;;;5000995;28;20049;-68
2022/03/16 03:47:57;;;;;;;27.27;16.77;;;;;;;;;;5001352;28;20042;-69
2022/03/16 03:50:22;;;;;;;25.42;15.38;;;;;;;;;;5001034;28;20095;-69
2022/03/16 03:52:47;;;;;;;27.02;15.88;;;;;;;;;;5000421;28;20045;-69
2022/03/16 03:55:13;;;;;;;22.60;14.75;;;;;;;;;;5001099;28;20030;-69
2022/03/16 03:57:38;;;;;;;23.95;15.35;;;;;;;;;;5001309;28;20100;-68
2022/03/16 04:00:05;;;;;;;23.95;14.43;;;;;;;;;;5001105;28;20065;-69
2022/03/16 04:02:37;;;;;;;24.98;14.18;;;;;;;;;;5001722;28;20037;-69
2022/03/16 04:05:03;;;;;;;20.35;13.40;;;;;;;;;;4999975;28;20092;-69
2022/03/16 04:07:29;;;;;;;21.20;13.52;;;;;;;;;;5001219;28;20068;-68
2022/03/16 04:09:54;;;;;;;19.38;12.73;;;;;;;;;;5000986;28;20105;-69
2022/03/16 04:12:19;;;;;;;15.45;11.02;;;;;;;;;;5001321;28;21053;-69
2022/03/16 04:14:45;;;;;;;16.40;10.98;;;;;;;;;;5000303;28;20396;-69
2022/03/16 04:17:10;;;;;;;16.95;11.75;;;;;;;;;;5000928;28;20487;-69
2022/03/16 04:19:36;;;;;;;16.73;11.23;;;;;;;;;;5000872;28;20065;-69
2022/03/16 04:22:02;;;;;;;21.58;13.23;;;;;;;;;;5000967;28;20037;-69
2022/03/16 04:24:27;;;;;;;20.85;13.48;;;;;;;;;;5000823;28;20419;-69
2022/03/16 04:26:53;;;;;;;24.45;14.98;;;;;;;;;;5000065;28;20041;-69
2022/03/16 04:29:18;;;;;;;25.75;15.98;;;;;;;;;;4983136;28;20046;-69
2022/03/16 04:31:44;;;;;;;30.40;16.67;;;;;;;;;;5000791;28;20029;-69
2022/03/16 04:34:10;;;;;;;29.23;16.77;;;;;;;;;;5000603;28;20091;-68
2022/03/16 04:36:35;;;;;;;29.42;17.20;;;;;;;;;;4982118;28;20042;-69
2022/03/16 04:39:01;;;;;;;28.52;16.98;;;;;;;;;;4997827;28;20073;-68
2022/03/16 04:41:26;;;;;;;25.83;16.45;;;;;;;;;;5000558;28;20037;-69
2022/03/16 04:43:51;;;;;;;27.33;17.17;;;;;;;;;;5003676;28;20084;-68
2022/03/16 04:46:17;;;;;;;25.73;15.52;;;;;;;;;;5003913;28;20050;-68
2022/03/16 04:48:43;;;;;;;31.52;18.02;;;;;;;;;;5000678;28;20029;-68
2022/03/16 04:51:09;;;;;;;33.28;19.15;;;;;;;;;;5003632;28;20048;-68
2022/03/16 04:53:34;;;;;;;31.17;18.45;;;;;;;;;;5004024;28;20026;-68
2022/03/16 04:56:00;;;;;;;34.63;19.60;;;;;;;;;;5003736;28;20111;-68
2022/03/16 04:58:25;;;;;;;39.30;22.08;;;;;;;;;;5003102;28;20807;-68
2022/03/16 05:04:38;;;;;;;34.92;19.17;;;;;;;;;;5024118;28;20048;-69
2022/03/16 05:07:05;;;;;;;36.72;20.42;;;;;;;;;;5002096;28;20087;-68
2022/03/16 05:09:30;;;;;;;35.10;19.08;;;;;;;;;;5003217;28;20041;-68
2022/03/16 05:11:56;;;;;;;33.33;19.35;;;;;;;;;;4979087;28;20084;-69
2022/03/16 05:14:21;;;;;;;32.70;18.92;;;;;;;;;;5003279;28;20384;-68
2022/03/16 05:16:47;;;;;;;32.60;17.73;;;;;;;;;;5003724;28;20037;-68
2022/03/16 05:19:12;;;;;;;29.45;18.63;;;;;;;;;;5003520;28;20119;-68
2022/03/16 05:21:38;;;;;;;30.90;17.08;;;;;;;;;;5002548;28;20560;-68
2022/03/16 05:24:04;;;;;;;37.90;18.90;;;;;;;;;;5002962;28;20042;-69
2022/03/16 05:26:30;;;;;;;33.10;19.23;;;;;;;;;;5003567;28;20044;-68
2022/03/16 05:28:56;;;;;;;33.90;19.23;;;;;;;;;;5003285;28;20041;-68
2022/03/16 05:31:22;;;;;;;37.38;20.90;;;;;;;;;;5002250;28;20083;-68
2022/03/16 05:33:48;;;;;;;36.28;19.45;;;;;;;;;;5001390;28;20112;-67
2022/03/16 05:36:14;;;;;;;33.65;18.88;;;;;;;;;;5002924;28;20068;-68
2022/03/16 05:38:39;;;;;;;36.08;20.27;;;;;;;;;;5002695;28;20037;-68
2022/03/16 05:41:05;;;;;;;30.70;19.85;;;;;;;;;;5002794;28;20034;-67
2022/03/16 05:43:31;;;;;;;31.85;18.60;;;;;;;;;;5001094;28;20040;-69
2022/03/16 05:45:56;;;;;;;34.00;19.42;;;;;;;;;;5002011;28;20034;-70
2022/03/16 05:48:21;;;;;;;34.17;18.88;;;;;;;;;;5002566;28;21239;-69
2022/03/16 05:50:47;;;;;;;35.05;18.80;;;;;;;;;;5002807;28;20410;-69
2022/03/16 05:53:14;;;;;;;34.80;19.90;;;;;;;;;;4979194;28;20494;-69
2022/03/16 05:55:41;;;;;;;34.30;19.42;;;;;;;;;;5002389;28;20038;-69
2022/03/16 05:58:06;;;;;;;33.58;17.88;;;;;;;;;;5002720;28;20134;-69
2022/03/16 06:00:32;;;;;;;28.77;18.15;;;;;;;;;;5002795;28;20537;-69
2022/03/16 06:02:58;;;;;;;37.60;18.95;;;;;;;;;;5002945;28;20176;-69
2022/03/16 06:05:24;;;;;;;30.38;17.95;;;;;;;;;;5000433;28;20406;-69
2022/03/16 06:07:49;;;;;;;30.67;17.52;;;;;;;;;;5002866;28;20037;-69
2022/03/16 06:10:17;;;;;;;30.20;17.23;;;;;;;;;;5000208;28;20133;-69
2022/03/16 06:13:16;;;;;;;36.05;19.92;;;;;;;;;;5001642;28;21055;-68
2022/03/16 06:15:43;;;;;;;34.65;20.38;;;;;;;;;;4953832;28;20046;-69
2022/03/16 06:18:09;;;;;;;34.15;19.02;;;;;;;;;;4997845;28;20606;-69
2022/03/16 06:20:35;;;;;;;33.63;19.30;;;;;;;;;;4998279;28;20509;-69
2022/03/16 06:23:01;;;;;;;33.80;19.50;;;;;;;;;;5000753;28;20041;-69
2022/03/16 06:25:26;;;;;;;31.75;17.92;;;;;;;;;;5001286;28;20048;-68
2022/03/16 06:27:52;;;;;;;33.47;18.05;;;;;;;;;;5001105;28;20112;-68
2022/03/16 06:30:18;;;;;;;32.60;19.48;;;;;;;;;;5002072;28;20037;-69
2022/03/16 06:32:45;;;;;;;30.30;17.67;;;;;;;;;;5000977;28;20399;-69
2022/03/16 06:35:12;;;;;;;31.38;17.40;;;;;;;;;;5002058;28;20049;-69
2022/03/16 06:37:37;;;;;;;34.25;19.20;;;;;;;;;;5002155;28;20037;-69
2022/03/16 06:40:04;;;;;;;31.35;18.40;;;;;;;;;;5002084;28;20044;-69
2022/03/16 06:42:30;;;;;;;33.45;19.27;;;;;;;;;;5001360;28;20049;-70
2022/03/16 06:44:55;;;;;;;41.13;21.00;;;;;;;;;;5001000;28;20045;-70
2022/03/16 06:47:21;;;;;;;33.63;18.25;;;;;;;;;;5001190;28;20061;-70
2022/03/16 06:49:46;;;;;;;32.88;18.50;;;;;;;;;;5000773;28;20604;-70
2022/03/16 06:52:12;;;;;;;32.45;18.58;;;;;;;;;;5001232;28;20483;-70
2022/03/16 06:54:38;;;;;;;33.90;19.75;;;;;;;;;;4982076;28;20038;-69
2022/03/16 06:57:03;;;;;;;32.85;18.63;;;;;;;;;;5001495;28;20030;-70
2022/03/16 06:59:29;;;;;;;36.00;18.33;;;;;;;;;;5000085;28;20046;-70
2022/03/16 07:01:54;;;;;;;36.80;21.20;;;;;;;;;;4999580;28;20034;-70
2022/03/16 07:04:20;;;;;;;31.58;18.30;;;;;;;;;;4998326;28;20026;-69
2022/03/16 07:06:45;;;;;;;35.55;19.58;;;;;;;;;;4999378;28;20088;-69
2022/03/16 07:09:10;;;;;;;36.97;20.33;;;;;;;;;;4999730;28;20053;-70
2022/03/16 07:11:36;;;;;;;38.58;21.10;;;;;;;;;;5000045;28;20088;-70
2022/03/16 07:16:45;;;;;;;38.67;20.77;;;;;;;;;;5000665;28;20395;-70
2022/03/16 07:19:11;;;;;;;36.90;20.42;;;;;;;;;;5001405;28;20506;-69
2022/03/16 07:21:37;;;;;;;34.13;19.17;;;;;;;;;;5001785;28;20421;-70
2022/03/16 07:24:03;;;;;;;32.08;19.20;;;;;;;;;;5001336;28;20026;-70
2022/03/16 07:26:28;;;;;;;30.33;17.75;;;;;;;;;;5000630;28;20047;-69
2022/03/16 07:28:54;;;;;;;31.00;18.08;;;;;;;;;;5001546;28;20040;-70
2022/03/16 07:31:19;;;;;;;30.83;18.05;;;;;;;;;;5001085;28;20042;-69
2022/03/16 07:33:45;;;;;;;32.22;19.45;;;;;;;;;;5001132;28;20053;-69
2022/03/16 07:36:10;;;;;;;34.92;20.02;;;;;;;;;;5001033;28;20030;-70
2022/03/16 07:38:36;;;;;;;32.30;18.45;;;;;;;;;;5000537;28;20406;-69
2022/03/16 07:41:02;;;;;;;30.88;17.70;;;;;;;;;;5000871;28;20544;-70
2022/03/16 07:43:29;;;;;;;30.77;18.58;;;;;;;;;;5001410;28;20408;-69
2022/03/16 07:45:56;;;;;;;30.67;17.73;;;;;;;;;;5000973;28;20032;-70
2022/03/16 07:48:22;;;;;;;29.05;17.25;;;;;;;;;;5000342;28;20034;-70
2022/03/16 07:50:49;;;;;;;29.63;17.17;;;;;;;;;;5001124;28;20033;-69
2022/03/16 07:53:15;;;;;;;26.88;17.13;;;;;;;;;;5000524;28;20037;-69
2022/03/16 07:55:40;;;;;;;28.85;17.35;;;;;;;;;;5001288;28;20034;-69
2022/03/16 07:58:05;;;;;;;27.48;17.38;;;;;;;;;;5000919;28;20511;-70
2022/03/16 08:00:31;;;;;;;27.98;17.02;;;;;;;;;;5000455;28;20551;-70
2022/03/16 08:03:03;;;;;;;26.88;16.98;;;;;;;;;;5000922;28;20073;-70
2022/03/16 08:05:29;;;;;;;27.38;16.88;;;;;;;;;;5001317;28;20396;-70
2022/03/16 08:07:54;;;;;;;27.33;17.02;;;;;;;;;;5000825;28;20505;-70
2022/03/16 08:10:20;;;;;;;27.73;17.83;;;;;;;;;;5000359;28;20042;-70
2022/03/16 08:12:46;;;;;;;28.92;17.60;;;;;;;;;;5000575;28;20395;-69
2022/03/16 08:15:12;;;;;;;26.60;16.30;;;;;;;;;;5000900;28;20038;-71
2022/03/16 08:17:38;;;;;;;30.40;17.63;;;;;;;;;;5001927;28;20064;-70
2022/03/16 08:20:04;;;;;;;25.40;16.70;;;;;;;;;;5004522;28;20491;-70
2022/03/16 08:22:34;;;;;;;28.40;16.17;;;;;;;;;;5003942;28;20068;-69
2022/03/16 08:25:02;;;;;;;31.38;17.88;;;;;;;;;;5004423;28;20091;-69
2022/03/16 08:27:28;;;;;;;28.52;18.05;;;;;;;;;;5004555;28;20045;-70
2022/03/16 08:29:54;;;;;;;28.95;18.67;;;;;;;;;;5004806;28;20045;-70
2022/03/16 08:32:21;;;;;;;26.83;17.52;;;;;;;;;;5003450;28;20064;-69
2022/03/16 08:34:47;;;;;;;24.70;15.68;;;;;;;;;;5004139;28;20045;-69
2022/03/16 08:37:13;;;;;;;22.88;14.45;;;;;;;;;;5004320;28;20050;-69
2022/03/16 08:39:40;;;;;;;24.48;15.43;;;;;;;;;;5004289;28;20056;-70
2022/03/16 08:42:07;;;;;;;25.85;16.33;;;;;;;;;;5004367;28;20045;-69
2022/03/16 08:44:32;;;;;;;29.55;16.85;;;;;;;;;;5003610;28;20113;-69
2022/03/16 08:46:58;;;;;;;21.10;12.75;;;;;;;;;;5004310;28;20191;-69
2022/03/16 08:49:23;;;;;;;20.25;13.07;;;;;;;;;;5004489;28;20033;-70
2022/03/16 08:51:49;;;;;;;22.77;14.52;;;;;;;;;;5003986;28;20040;-70
2022/03/16 08:54:14;;;;;;;24.63;15.27;;;;;;;;;;5003084;28;20101;-69
2022/03/16 08:56:40;;;;;;;24.95;15.60;;;;;;;;;;5003820;28;20037;-70
2022/03/16 08:59:06;;;;;;;23.13;15.07;;;;;;;;;;5004038;28;20033;-70
2022/03/16 09:01:31;;;;;;;22.38;14.40;;;;;;;;;;5003866;28;20384;-70
2022/03/16 09:03:57;;;;;;;24.48;16.05;;;;;;;;;;5003885;28;20041;-70
2022/03/16 09:06:22;;;;;;;23.35;15.38;;;;;;;;;;5002894;28;20034;-70
2022/03/16 09:08:48;;;;;;;22.65;15.57;;;;;;;;;;5003829;28;20469;-69
2022/03/16 09:11:13;;;;;;;20.88;14.02;;;;;;;;;;5003695;28;20069;-70
2022/03/16 09:13:39;;;;;;;23.08;14.60;;;;;;;;;;5003600;28;20038;-70
2022/03/16 09:16:04;;;;;;;25.08;15.73;;;;;;;;;;5003764;28;20061;-69
2022/03/16 09:18:30;;;;;;;21.92;14.68;;;;;;;;;;5002649;28;20458;-70
2022/03/16 09:20:55;;;;;;;20.95;14.98;;;;;;;;;;5003660;28;20033;-70
2022/03/16 09:23:21;;;;;;;21.88;14.88;;;;;;;;;;5003271;28;20120;-70
2022/03/16 09:25:46;;;;;;;25.48;14.10;;;;;;;;;;5003624;28;20494;-69
2022/03/16 09:28:12;;;;;;;22.25;15.07;;;;;;;;;;5001743;28;20473;-70
2022/03/16 09:30:38;;;;;;;23.70;15.90;;;;;;;;;;5004001;28;20053;-70
2022/03/16 09:33:04;;;;;;;24.75;15.27;;;;;;;;;;5003112;28;20025;-70
2022/03/16 09:35:31;;;;;;;22.58;14.48;;;;;;;;;;5003605;28;20038;-70
2022/03/16 09:38:00;;;;;;;25.23;16.38;;;;;;;;;;5003108;28;20129;-70
2022/03/16 09:40:26;;;;;;;21.27;13.73;;;;;;;;;;5002046;28;20530;-70
2022/03/16 09:42:54;;;;;;;21.75;14.70;;;;;;;;;;5002918;28;20113;-70
2022/03/16 09:45:21;;;;;;;21.23;14.50;;;;;;;;;;5003231;28;20030;-70
2022/03/16 09:47:48;;;;;;;21.60;13.70;;;;;;;;;;5003099;28;20041;-70
2022/03/16 09:50:14;;;;;;;21.35;14.27;;;;;;;;;;5002022;28;20036;-70
2022/03/16 09:52:40;;;;;;;22.25;15.10;;;;;;;;;;5003404;28;20402;-69
2022/03/16 09:55:06;;;;;;;20.90;13.82;;;;;;;;;;5002296;28;20030;-70
2022/03/16 09:57:32;;;;;;;19.90;13.90;;;;;;;;;;5003015;28;20793;-70
2022/03/16 09:59:58;;;;;;;21.00;13.07;;;;;;;;;;5002666;28;20034;-70
2022/03/16 10:02:26;;;;;;;27.02;14.85;;;;;;;;;;5001847;28;20045;-70
2022/03/16 10:04:53;;;;;;;20.85;14.23;;;;;;;;;;5002841;28;20030;-70
2022/03/16 10:07:26;;;;;;;21.85;14.77;;;;;;;;;;5002621;28;20053;-70
2022/03/16 10:15:19;;;;;;;24.90;16.17;;;;;;;;;;5002503;28;20038;-71
2022/03/16 10:17:56;;;;;;;23.73;15.90;;;;;;;;;;5002628;28;20044;-70
2022/03/16 10:20:26;;;;;;;22.60;15.23;;;;;;;;;;5002434;28;20081;-70
2022/03/16 10:22:57;;;;;;;22.23;15.23;;;;;;;;;;5002182;28;20118;-70
2022/03/16 10:25:23;;;;;;;23.25;14.98;;;;;;;;;;5002350;28;20034;-69
2022/03/16 10:27:48;;;;;;;22.75;13.95;;;;;;;;;;5002344;28;20037;-70
2022/03/16 10:30:14;;;;;;;21.60;14.90;;;;;;;;;;5002150;28;20350;-70
2022/03/16 10:32:40;;;;;;;21.52;14.55;;;;;;;;;;5003203;28;20483;-70
2022/03/16 10:35:07;;;;;;;20.00;12.98;;;;;;;;;;5000764;28;20482;-69
2022/03/16 10:40:19;;;;;;;19.13;12.55;;;;;;;;;;4960855;28;20420;-69
2022/03/16 10:48:16;;;;;;;18.08;12.38;;;;;;;;;;4962643;28;20070;-69
2022/03/16 10:50:43;;;;;;;19.98;12.93;;;;;;;;;;4963212;28;20038;-69
2022/03/16 10:53:10;;;;;;;17.98;12.05;;;;;;;;;;4962769;28;20125;-69
2022/03/16 10:55:37;;;;;;;16.73;12.73;;;;;;;;;;4962254;28;20062;-69
2022/03/16 10:58:04;;;;;;;18.42;13.57;;;;;;;;;;4962827;28;20045;-69
2022/03/16 11:00:30;;;;;;;17.63;12.65;;;;;;;;;;4966669;28;20096;-69
2022/03/16 11:02:57;;;;;;;17.02;12.30;;;;;;;;;;4966280;28;20038;-69
2022/03/16 11:05:23;;;;;;;17.23;12.98;;;;;;;;;;4962671;28;20038;-69
2022/03/16 11:07:50;;;;;;;17.60;12.73;;;;;;;;;;4969334;28;20034;-69
2022/03/16 11:10:16;;;;;;;18.60;13.35;;;;;;;;;;4962403;28;20058;-69
2022/03/16 11:15:26;;;;;;;16.50;12.27;;;;;;;;;;4962562;28;20185;-69
2022/03/16 11:17:51;;;;;;;18.20;12.43;;;;;;;;;;4962127;28;20601;-69
2022/03/16 11:20:19;;;;;;;18.42;12.43;;;;;;;;;;4962443;28;20038;-69
2022/03/16 11:25:58;;;;;;;16.48;11.50;;;;;;;;;;4962466;28;20496;-69
2022/03/16 11:28:42;;;;;;;16.48;11.15;;;;;;;;;;4961828;28;20030;-69
2022/03/16 11:31:12;;;;;;;21.08;12.60;;;;;;;;;;4962956;28;20034;-69
2022/03/16 11:33:53;;;;;;;21.00;13.75;;;;;;;;;;4962319;28;20042;-69
2022/03/16 11:36:32;;;;;;;15.03;11.17;;;;;;;;;;4962536;28;20035;-69
2022/03/16 11:39:01;;;;;;;15.13;11.50;;;;;;;;;;4962436;28;20034;-69
2022/03/16 11:41:29;;;;;;;13.35;10.45;;;;;;;;;;4961809;28;20035;-69
2022/03/16 11:44:02;;;;;;;15.43;11.77;;;;;;;;;;4962183;28;20109;-70
2022/03/16 11:46:30;;;;;;;15.50;11.40;;;;;;;;;;4969459;28;20039;-69
2022/03/16 11:48:59;;;;;;;19.15;11.68;;;;;;;;;;4962492;28;20058;-69
2022/03/16 11:51:25;;;;;;;14.32;11.63;;;;;;;;;;4962262;28;20749;-69
2022/03/16 11:53:51;;;;;;;15.90;11.45;;;;;;;;;;4965770;28;20106;-69
2022/03/16 11:56:23;;;;;;;16.33;12.10;;;;;;;;;;4966695;28;20422;-69
2022/03/16 11:58:53;;;;;;;17.20;12.27;;;;;;;;;;4966261;28;20035;-69
2022/03/16 12:01:34;;;;;;;15.95;12.10;;;;;;;;;;4972833;28;20039;-70
2022/03/16 12:04:16;;;;;;;17.90;14.10;;;;;;;;;;4965788;28;20039;-69
2022/03/16 12:07:04;;;;;;;11.90;9.65;;;;;;;;;;4966006;28;20038;-69
2022/03/16 12:09:40;;;;;;;14.32;11.07;;;;;;;;;;4965988;28;20070;-69
2022/03/16 12:15:01;;;;;;;15.52;11.07;;;;;;;;;;4973121;28;20034;-68
2022/03/16 12:17:27;;;;;;;14.07;11.50;;;;;;;;;;4978505;28;20267;-69
2022/03/16 12:20:13;;;;;;;14.63;10.32;;;;;;;;;;4968132;28;20447;-69
2022/03/16 12:22:46;;;;;;;15.65;10.93;;;;;;;;;;4969067;28;20035;-69
2022/03/16 12:25:27;;;;;;;13.65;10.82;;;;;;;;;;4966374;28;20136;-70
2022/03/16 12:30:54;;;;;;;13.23;10.10;;;;;;;;;;4966276;28;20054;-70
2022/03/16 12:33:27;;;;;;;12.77;9.77;;;;;;;;;;4963438;28;20377;-69
2022/03/16 12:36:00;;;;;;;13.05;9.57;;;;;;;;;;4963830;28;20097;-69
2022/03/16 12:38:29;;;;;;;12.98;10.95;;;;;;;;;;4963482;28;20063;-69
2022/03/16 12:43:42;;;;;;;15.18;11.60;;;;;;;;;;4964080;28;20456;-69
2022/03/16 12:46:23;;;;;;;15.98;12.23;;;;;;;;;;4969833;28;20113;-69
2022/03/16 12:48:54;;;;;;;16.15;11.73;;;;;;;;;;4963675;28;20073;-69
2022/03/16 12:51:45;;;;;;;14.70;12.18;;;;;;;;;;4963656;28;20362;-68
2022/03/16 12:54:12;;;;;;;15.18;12.45;;;;;;;;;;4963673;28;20038;-69
2022/03/16 12:56:43;;;;;;;15.48;11.85;;;;;;;;;;4963504;28;20038;-69
2022/03/16 12:59:10;;;;;;;15.60;11.85;;;;;;;;;;4965187;28;20034;-69
2022/03/16 13:01:35;;;;;;;14.98;11.63;;;;;;;;;;4972170;28;20034;-69
2022/03/16 13:04:03;;;;;;;15.60;12.52;;;;;;;;;;4962819;28;20531;-69
2022/03/16 13:06:33;;;;;;;17.15;13.27;;;;;;;;;;4963534;28;20101;-69
2022/03/16 13:09:01;;;;;;;16.45;12.45;;;;;;;;;;4977452;28;20038;-69
2022/03/16 13:11:30;;;;;;;15.30;11.57;;;;;;;;;;4963304;28;20031;-68
2022/03/16 13:14:13;;;;;;;16.55;12.05;;;;;;;;;;4965232;28;20403;-69
2022/03/16 13:16:45;;;;;;;17.20;12.23;;;;;;;;;;4976619;28;20145;-69
2022/03/16 13:19:23;;;;;;;16.63;12.80;;;;;;;;;;4965473;28;20045;-69
2022/03/16 13:21:49;;;;;;;17.35;13.10;;;;;;;;;;4968394;28;20407;-69
2022/03/16 13:24:14;;;;;;;19.08;13.20;;;;;;;;;;4963521;28;20035;-69
2022/03/16 13:26:39;;;;;;;18.30;12.48;;;;;;;;;;4963583;28;20491;-69
2022/03/16 13:29:10;;;;;;;19.65;13.70;;;;;;;;;;4963489;28;20101;-69
2022/03/16 13:31:40;;;;;;;15.32;12.10;;;;;;;;;;4970329;28;20039;-69
2022/03/16 13:34:08;;;;;;;20.35;13.57;;;;;;;;;;4965556;28;20064;-69
2022/03/16 13:36:39;;;;;;;17.33;13.57;;;;;;;;;;4970011;28;20137;-69
2022/03/16 13:39:16;;;;;;;19.27;14.57;;;;;;;;;;4962533;28;20723;-68
2022/03/16 13:42:05;;;;;;;22.85;14.73;;;;;;;;;;4969257;28;20042;-68
2022/03/16 13:44:37;;;;;;;18.92;13.80;;;;;;;;;;4962251;28;20027;-69
2022/03/16 13:47:05;;;;;;;18.13;13.48;;;;;;;;;;4971702;28;20046;-69
2022/03/16 13:49:37;;;;;;;17.98;13.93;;;;;;;;;;4964077;28;20396;-69
2022/03/16 13:52:08;;;;;;;18.40;12.85;;;;;;;;;;4969932;28;20054;-69
2022/03/16 13:54:35;;;;;;;21.27;15.20;;;;;;;;;;4963797;28;20049;-69
2022/03/16 13:57:14;;;;;;;19.38;14.25;;;;;;;;;;4971827;28;20042;-69
2022/03/16 13:59:41;;;;;;;17.45;12.60;;;;;;;;;;4964062;28;20073;-69
2022/03/16 14:02:22;;;;;;;18.05;14.10;;;;;;;;;;4964474;28;20097;-69
2022/03/16 14:04:55;;;;;;;17.48;13.02;;;;;;;;;;4971025;28;20037;-69
2022/03/16 14:07:27;;;;;;;17.55;13.30;;;;;;;;;;4962430;28;20073;-69
2022/03/16 14:09:59;;;;;;;21.17;14.57;;;;;;;;;;4964163;28;20415;-69
2022/03/16 14:12:26;;;;;;;17.42;13.02;;;;;;;;;;4963952;28;21038;-68
2022/03/16 14:15:10;;;;;;;19.65;12.98;;;;;;;;;;4965210;28;20041;-68
2022/03/16 14:17:58;;;;;;;19.90;13.88;;;;;;;;;;4963392;28;20038;-69
2022/03/16 14:20:32;;;;;;;17.75;14.07;;;;;;;;;;4963367;28;20118;-69
2022/03/16 14:22:58;;;;;;;20.20;14.75;;;;;;;;;;4963104;28;20042;-69
2022/03/16 14:25:33;;;;;;;19.63;15.52;;;;;;;;;;4968514;28;20038;-68
2022/03/16 14:28:00;;;;;;;19.40;14.23;;;;;;;;;;4963198;28;20050;-68
2022/03/16 14:30:28;;;;;;;20.42;14.75;;;;;;;;;;4965581;28;20049;-69
2022/03/16 14:33:00;;;;;;;21.17;14.52;;;;;;;;;;4967244;28;20050;-68
2022/03/16 14:35:27;;;;;;;18.13;14.30;;;;;;;;;;4960672;28;20086;-68
2022/03/16 14:37:53;;;;;;;19.08;13.82;;;;;;;;;;4962986;28;20047;-69
2022/03/16 14:40:21;;;;;;;19.80;15.20;;;;;;;;;;4963199;28;20047;-69
2022/03/16 14:42:52;;;;;;;19.58;14.88;;;;;;;;;;4971247;28;20484;-69
2022/03/16 14:45:17;;;;;;;18.60;14.57;;;;;;;;;;4964286;28;20369;-69
2022/03/16 14:47:43;;;;;;;21.25;14.38;;;;;;;;;;4973674;28;20045;-69
2022/03/16 14:50:10;;;;;;;19.58;15.20;;;;;;;;;;4962942;28;20139;-69
2022/03/16 14:52:35;;;;;;;16.67;13.40;;;;;;;;;;4945541;28;20092;-69
2022/03/16 14:55:01;;;;;;;20.92;14.95;;;;;;;;;;4962633;28;20038;-69